Time;durP1;ratioP1;P1;durP2;ratioP2;P2;SDS_P1;SDS_P2;PMS_P1;PMS_P2;Temp;Humidity;BMP_temperature;BMP_pressure;BME280_temperature;BME280_humidity;BME280_pressure;Samples;Min_cycle;Max_cycle;Signal;HPM_P1;HPM_P2
2022/10/21 00:01:15;;;;;;;0.00;0.00;;;;;;;16.07;75.75;99319.22;7363252;19;20666;-57
2022/10/21 00:03:40;;;;;;;0.08;0.08;;;;;;;16.20;75.51;99333.22;7362949;19;20082;-58
2022/10/21 00:06:06;;;;;;;0.00;0.00;;;;;;;16.21;75.65;99327.00;7362159;19;20006;-57
2022/10/21 00:08:32;;;;;;;0.00;0.00;;;;;;;16.09;75.70;99306.78;7362318;19;20029;-56
2022/10/21 00:11:01;;;;;;;0.00;0.00;;;;;;;16.25;75.42;99323.22;7363474;19;20006;-57
2022/10/21 00:13:29;;;;;;;0.00;0.00;;;;;;;16.23;75.36;99308.47;7363074;19;20026;-58
2022/10/21 00:16:10;;;;;;;0.00;0.00;;;;;;;16.28;74.93;99296.69;7344853;19;20010;-57
2022/10/21 00:18:37;;;;;;;0.00;0.00;;;;;;;16.27;75.70;99296.75;7361305;19;20723;-56
2022/10/21 00:21:12;;;;;;;0.00;0.00;;;;;;;16.30;75.01;99289.50;7359139;19;20010;-56
2022/10/21 00:23:37;;;;;;;0.00;0.00;;;;;;;16.27;75.65;99292.38;7363214;19;20007;-57
2022/10/21 00:26:04;;;;;;;0.00;0.00;;;;;;;16.28;75.33;99275.59;7362218;19;20099;-56
2022/10/21 00:28:29;;;;;;;0.00;0.00;;;;;;;16.28;75.33;99270.34;7337380;19;20500;-56
2022/10/21 00:30:55;;;;;;;0.00;0.00;;;;;;;16.29;75.31;99258.00;7345018;19;20014;-56
2022/10/21 00:33:21;;;;;;;0.03;0.03;;;;;;;16.29;75.50;99248.31;7351465;19;20006;-56
2022/10/21 00:35:52;;;;;;;0.00;0.00;;;;;;;16.25;75.16;99236.28;7357193;19;20608;-57
2022/10/21 00:38:17;;;;;;;0.08;0.08;;;;;;;16.28;75.77;99238.72;7352607;19;20494;-57
2022/10/21 00:40:43;;;;;;;0.10;0.10;;;;;;;16.28;75.21;99230.81;7352203;19;20086;-57
2022/10/21 00:43:10;;;;;;;0.00;0.00;;;;;;;16.26;75.80;99224.81;7352593;19;20022;-57
2022/10/21 00:45:35;;;;;;;0.05;0.05;;;;;;;16.25;75.28;99220.50;7358371;19;20575;-57
2022/10/21 00:48:26;;;;;;;0.00;0.00;;;;;;;16.18;74.88;99211.34;7359599;19;20010;-58
2022/10/21 00:50:59;;;;;;;0.00;0.00;;;;;;;16.23;74.53;99217.13;7261055;19;2004225;-57
2022/10/21 00:53:25;;;;;;;0.00;0.00;;;;;;;16.15;74.62;99211.53;7358952;19;20010;-58
2022/10/21 00:55:54;;;;;;;0.00;0.00;;;;;;;16.13;74.60;99208.19;7362890;19;20617;-57
2022/10/21 00:58:23;;;;;;;0.00;0.00;;;;;;;16.13;74.76;99207.34;7361806;19;20014;-57
2022/10/21 01:00:53;;;;;;;0.10;0.10;;;;;;;16.11;74.55;99220.59;7362373;19;20010;-57
2022/10/21 01:03:19;;;;;;;0.10;0.10;;;;;;;15.90;74.68;99179.97;7360301;19;20731;-57
2022/10/21 01:05:46;;;;;;;0.00;0.00;;;;;;;16.03;74.69;99205.34;7360976;19;20037;-58
2022/10/21 01:08:11;;;;;;;0.10;0.10;;;;;;;15.99;74.71;99195.13;7356351;19;20089;-57
2022/10/21 01:10:38;;;;;;;0.00;0.00;;;;;;;15.97;74.83;99191.78;7358417;19;20138;-57
2022/10/21 01:13:12;;;;;;;0.10;0.10;;;;;;;15.95;74.45;99193.66;7360251;19;20652;-57
2022/10/21 01:15:51;;;;;;;0.03;0.03;;;;;;;15.94;74.51;99184.06;7360333;19;20010;-56
2022/10/21 01:18:27;;;;;;;0.00;0.00;;;;;;;15.91;74.75;99179.00;7361198;19;20014;-57
2022/10/21 01:21:19;;;;;;;0.00;0.00;;;;;;;15.90;74.90;99169.44;7360570;19;20010;-57
2022/10/21 01:24:06;;;;;;;0.03;0.03;;;;;;;15.88;75.26;99160.81;7258504;19;2004254;-56
2022/10/21 01:26:51;;;;;;;;;;;;;;;15.90;73.50;99158.91;7362280;19;20564;-56
2022/10/21 01:29:41;;;;;;;0.00;0.00;;;;;;;15.87;74.33;99148.59;7359256;19;19911;-57
2022/10/21 01:32:38;;;;;;;0.10;0.10;;;;;;;15.86;74.73;99146.88;7358479;19;20013;-58
2022/10/21 01:35:48;;;;;;;0.10;0.10;;;;;;;15.86;73.92;99137.19;7255518;19;2004350;-56
2022/10/21 01:38:37;;;;;;;0.00;0.00;;;;;;;15.83;74.73;99133.00;7257383;19;2004382;-57
2022/10/21 01:41:02;;;;;;;0.00;0.00;;;;;;;15.80;75.19;99132.38;7358477;19;20022;-56
2022/10/21 01:43:51;;;;;;;0.00;0.00;;;;;;;15.82;74.32;99131.31;7359817;19;24461;-56
2022/10/21 01:46:49;;;;;;;0.00;0.00;;;;;;;15.82;74.62;99141.84;7262882;19;2004480;-56
2022/10/21 01:49:26;;;;;;;0.00;0.00;;;;;;;15.77;74.90;99133.44;7256277;19;2004384;-57
2022/10/21 01:51:53;;;;;;;0.10;0.10;;;;;;;15.80;75.05;99142.91;7356448;19;20011;-57
2022/10/21 01:54:26;;;;;;;0.00;0.00;;;;;;;15.81;74.86;99155.97;7361353;19;20105;-58
2022/10/21 01:56:53;;;;;;;0.00;0.00;;;;;;;15.80;75.03;99159.53;7358856;19;20010;-57
2022/10/21 01:59:23;;;;;;;0.00;0.00;;;;;;;15.81;75.15;99155.09;7354885;19;20034;-53
2022/10/21 02:01:50;;;;;;;0.00;0.00;;;;;;;15.81;75.01;99158.59;7362759;19;20017;-58
2022/10/21 02:04:17;;;;;;;;;;;;;;;15.87;74.00;99146.81;7365135;19;20002;-58
2022/10/21 02:06:42;;;;;;;0.00;0.00;;;;;;;15.83;75.13;99138.28;7361520;19;19941;-56
2022/10/21 02:09:08;;;;;;;0.00;0.00;;;;;;;15.86;75.13;99136.38;7362522;19;20097;-57
2022/10/21 02:11:37;;;;;;;0.00;0.00;;;;;;;15.87;75.19;99133.66;7362180;19;20027;-55
2022/10/21 02:14:24;;;;;;;0.10;0.10;;;;;;;15.93;74.87;99121.84;7362093;19;20023;-56
2022/10/21 02:16:51;;;;;;;0.00;0.00;;;;;;;15.76;75.37;99094.91;7255390;19;2004751;-57
2022/10/21 02:19:19;;;;;;;0.00;0.00;;;;;;;15.88;75.44;99102.91;7361185;19;20025;-57
2022/10/21 02:21:48;;;;;;;0.00;0.00;;;;;;;15.92;75.66;99104.38;7361747;19;20023;-57
2022/10/21 02:24:27;;;;;;;0.00;0.00;;;;;;;15.93;75.67;99098.16;7364107;19;20010;-57
2022/10/21 02:26:53;;;;;;;0.00;0.00;;;;;;;15.95;75.48;99093.59;7361684;19;20734;-57
2022/10/21 02:29:23;;;;;;;0.00;0.00;;;;;;;15.98;75.69;99088.97;7362272;19;20003;-57
2022/10/21 02:31:57;;;;;;;0.10;0.10;;;;;;;16.00;75.50;99078.31;7358336;19;20006;-56
2022/10/21 02:34:29;;;;;;;0.00;0.00;;;;;;;16.01;75.70;99078.22;7362678;19;20006;-57
2022/10/21 02:37:14;;;;;;;0.00;0.00;;;;;;;16.05;75.27;99070.94;7360329;19;20472;-57
2022/10/21 02:39:49;;;;;;;0.00;0.00;;;;;;;16.06;75.03;99056.81;7363462;19;20010;-57
2022/10/21 02:42:20;;;;;;;0.00;0.00;;;;;;;16.05;75.80;99052.50;7362475;19;20010;-57
2022/10/21 02:44:45;;;;;;;0.10;0.10;;;;;;;16.04;75.60;99050.84;7360560;19;20014;-58
2022/10/21 02:47:10;;;;;;;0.00;0.00;;;;;;;15.90;75.56;99020.22;7361098;19;20512;-57
2022/10/21 02:49:36;;;;;;;0.05;0.05;;;;;;;15.95;75.76;99035.69;7359807;19;20070;-56
2022/10/21 02:52:01;;;;;;;0.05;0.05;;;;;;;16.06;75.51;99041.03;7363197;19;20022;-56
2022/10/21 02:54:27;;;;;;;0.00;0.00;;;;;;;16.02;75.78;99032.53;7360605;19;20010;-57
2022/10/21 02:56:52;;;;;;;0.10;0.10;;;;;;;16.04;75.58;99025.34;7362370;19;20022;-57
2022/10/21 02:59:17;;;;;;;0.00;0.00;;;;;;;16.07;75.82;99034.81;7358520;19;20393;-56
2022/10/21 03:01:43;;;;;;;0.00;0.00;;;;;;;16.06;75.45;99033.13;7360255;19;20010;-57
2022/10/21 03:04:08;;;;;;;0.00;0.00;;;;;;;16.03;75.37;99023.66;7355387;19;21090;-58
2022/10/21 03:06:34;;;;;;;0.00;0.00;;;;;;;16.06;75.68;99015.53;7360091;19;20014;-57
2022/10/21 03:08:59;;;;;;;0.00;0.00;;;;;;;16.01;75.39;99001.00;7361348;19;20492;-57
2022/10/21 03:11:25;;;;;;;0.03;0.03;;;;;;;16.02;75.37;98994.81;7361264;19;20038;-57
2022/10/21 03:13:50;;;;;;;0.00;0.00;;;;;;;16.11;75.74;99002.03;7360821;19;20034;-56
2022/10/21 03:16:15;;;;;;;0.08;0.08;;;;;;;16.12;75.45;98997.59;7362527;19;20037;-58
2022/10/21 03:18:41;;;;;;;0.00;0.00;;;;;;;16.12;75.30;98981.81;7359338;19;20027;-57
2022/10/21 03:21:06;;;;;;;0.03;0.03;;;;;;;16.14;75.72;98983.38;7346616;19;20109;-53
2022/10/21 03:23:32;;;;;;;0.10;0.10;;;;;;;16.13;75.57;98968.53;7357204;19;20612;-57
2022/10/21 03:25:57;;;;;;;0.00;0.00;;;;;;;16.15;75.67;98964.00;7354044;19;20015;-57
2022/10/21 03:28:23;;;;;;;0.03;0.03;;;;;;;16.15;75.33;98953.47;7356948;19;20479;-56
2022/10/21 03:30:48;;;;;;;0.00;0.00;;;;;;;16.15;75.23;98942.94;7356409;19;20006;-57
2022/10/21 03:33:14;;;;;;;0.00;0.00;;;;;;;16.15;75.20;98942.94;7356643;19;20015;-57
2022/10/21 03:35:39;;;;;;;0.00;0.00;;;;;;;16.15;74.68;98926.28;7357483;19;20032;-55
2022/10/21 03:38:04;;;;;;;0.00;0.00;;;;;;;16.09;75.01;98917.06;7355079;19;20013;-57
2022/10/21 03:40:30;;;;;;;0.00;0.00;;;;;;;16.13;74.74;98923.78;7357850;19;20029;-57
2022/10/21 03:42:56;;;;;;;0.00;0.00;;;;;;;16.01;74.96;98901.81;7359430;19;20040;-57
2022/10/21 03:45:22;;;;;;;0.10;0.10;;;;;;;16.11;74.92;98904.59;7357166;19;20465;-56
2022/10/21 03:47:47;;;;;;;0.00;0.00;;;;;;;16.07;74.52;98903.19;7358334;19;20010;-57
2022/10/21 03:50:13;;;;;;;0.03;0.03;;;;;;;15.98;74.82;98886.25;7358390;19;20007;-57
2022/10/21 03:52:38;;;;;;;0.00;0.00;;;;;;;16.09;74.61;98898.63;7358312;19;20081;-57
2022/10/21 03:55:04;;;;;;;0.00;0.00;;;;;;;16.05;74.37;98884.84;7358738;19;20655;-57
2022/10/21 03:57:29;;;;;;;0.00;0.00;;;;;;;16.07;74.21;98882.09;7357954;19;20016;-57
2022/10/21 03:59:55;;;;;;;0.08;0.08;;;;;;;16.05;74.11;98882.19;7357562;19;20109;-55
2022/10/21 04:02:20;;;;;;;0.08;0.08;;;;;;;16.01;74.25;98866.75;7355535;19;20010;-57
2022/10/21 04:04:45;;;;;;;0.00;0.00;;;;;;;16.02;73.67;98869.28;7359688;19;21829;-55
2022/10/21 04:07:11;;;;;;;0.00;0.00;;;;;;;16.05;74.20;98878.72;7356943;19;20015;-57
2022/10/21 04:09:36;;;;;;;0.10;0.10;;;;;;;16.04;74.41;98882.31;7358319;19;20010;-57
2022/10/21 04:12:02;;;;;;;0.03;0.03;;;;;;;16.02;74.42;98877.19;7358164;19;20118;-57
2022/10/21 04:14:27;;;;;;;0.10;0.10;;;;;;;16.03;73.82;98878.84;7356626;19;20341;-57
2022/10/21 04:16:53;;;;;;;0.00;0.00;;;;;;;16.02;74.25;98864.03;7363896;19;20034;-57
2022/10/21 04:19:19;;;;;;;0.00;0.00;;;;;;;16.04;74.06;98877.06;7362678;19;20018;-57
2022/10/21 04:21:45;;;;;;;0.05;0.05;;;;;;;16.02;73.99;98857.91;7365316;19;20037;-57
2022/10/21 04:24:11;;;;;;;0.00;0.00;;;;;;;16.02;74.47;98848.22;7364606;19;20010;-57
2022/10/21 04:26:36;;;;;;;0.00;0.00;;;;;;;15.96;74.25;98837.28;7362878;19;20513;-56
2022/10/21 04:29:02;;;;;;;0.00;0.00;;;;;;;16.00;74.35;98838.75;7362822;19;20592;-57
2022/10/21 04:31:27;;;;;;;0.00;0.00;;;;;;;15.98;74.52;98840.66;7364507;19;20003;-58
2022/10/21 04:33:53;;;;;;;0.10;0.10;;;;;;;15.94;74.14;98818.16;7364545;19;20018;-57
2022/10/21 04:36:18;;;;;;;0.00;0.00;;;;;;;15.93;74.18;98822.56;7363942;19;20735;-58
2022/10/21 04:38:44;;;;;;;0.00;0.00;;;;;;;15.93;74.44;98827.00;7363342;19;20015;-56
2022/10/21 04:41:09;;;;;;;0.00;0.00;;;;;;;15.90;74.10;98811.44;7364220;19;20010;-57
2022/10/21 04:43:36;;;;;;;0.00;0.00;;;;;;;15.91;74.35;98813.94;7364053;19;20857;-56
2022/10/21 04:46:01;;;;;;;0.00;0.00;;;;;;;15.89;74.31;98793.97;7364354;19;20018;-57
2022/10/21 04:48:27;;;;;;;0.08;0.08;;;;;;;15.90;74.14;98800.91;7363585;19;20445;-57
2022/10/21 04:50:53;;;;;;;0.00;0.00;;;;;;;15.82;74.30;98791.78;7362801;19;20006;-56
2022/10/21 04:53:19;;;;;;;0.00;0.00;;;;;;;15.82;74.37;98799.69;7363687;19;21533;-57
2022/10/21 04:55:45;;;;;;;0.00;0.00;;;;;;;15.89;74.23;98791.34;7365983;19;20033;-57
2022/10/21 04:58:10;;;;;;;0.00;0.00;;;;;;;15.87;73.95;98793.25;7363134;19;22212;-57
2022/10/21 05:00:36;;;;;;;0.00;0.00;;;;;;;15.88;74.00;98781.75;7362265;19;20007;-56
2022/10/21 05:03:01;;;;;;;0.00;0.00;;;;;;;15.90;74.06;98790.38;7364561;19;20662;-58
2022/10/21 05:05:27;;;;;;;0.05;0.05;;;;;;;15.89;74.06;98783.44;7362848;19;20623;-56
2022/10/21 05:07:52;;;;;;;0.00;0.00;;;;;;;15.88;74.08;98784.41;7362949;19;20037;-56
2022/10/21 05:10:18;;;;;;;0.00;0.00;;;;;;;15.90;74.05;98774.56;7362247;19;20035;-57
2022/10/21 05:12:43;;;;;;;0.00;0.00;;;;;;;15.90;73.78;98780.69;7362244;19;20018;-56
2022/10/21 05:15:09;;;;;;;0.05;0.05;;;;;;;15.88;73.99;98772.06;7363571;19;20006;-57
2022/10/21 05:17:35;;;;;;;0.00;0.00;;;;;;;15.93;74.33;98774.34;7362699;19;20045;-57
2022/10/21 05:20:02;;;;;;;0.00;0.00;;;;;;;15.94;73.85;98762.88;7362413;19;20019;-57
2022/10/21 05:22:27;;;;;;;0.00;0.00;;;;;;;15.94;74.32;98755.81;7363829;19;20462;-57
2022/10/21 05:24:53;;;;;;;0.00;0.00;;;;;;;15.89;74.11;98742.16;7362510;19;20022;-57
2022/10/21 05:27:18;;;;;;;0.00;0.00;;;;;;;15.97;73.81;98749.47;7360569;19;20018;-58
2022/10/21 05:29:44;;;;;;;0.00;0.00;;;;;;;15.98;74.05;98746.72;7360773;19;20028;-57
2022/10/21 05:32:09;;;;;;;0.00;0.00;;;;;;;15.98;74.34;98741.47;7362960;19;20010;-57
2022/10/21 05:34:34;;;;;;;0.10;0.10;;;;;;;15.99;74.21;98737.03;7362983;19;20492;-56
2022/10/21 05:37:00;;;;;;;0.00;0.00;;;;;;;15.96;74.06;98721.47;7363431;19;20217;-57
2022/10/21 05:39:25;;;;;;;0.00;0.00;;;;;;;15.91;74.35;98718.34;7359803;19;20012;-57
2022/10/21 05:41:50;;;;;;;0.00;0.00;;;;;;;15.96;74.78;98732.00;7364179;19;20405;-57
2022/10/21 05:44:16;;;;;;;0.00;0.00;;;;;;;15.96;74.61;98729.34;7361349;19;20358;-57
2022/10/21 05:46:41;;;;;;;0.10;0.10;;;;;;;15.94;74.88;98718.94;7363215;19;20017;-57
2022/10/21 05:49:07;;;;;;;0.00;0.00;;;;;;;15.94;74.71;98718.13;7361423;19;20010;-57
2022/10/21 05:51:32;;;;;;;0.05;0.05;;;;;;;15.92;74.89;98707.72;7360794;19;20014;-56
2022/10/21 05:53:58;;;;;;;0.00;0.00;;;;;;;15.91;75.13;98705.19;7362253;19;20115;-57
2022/10/21 05:56:23;;;;;;;0.00;0.00;;;;;;;15.89;75.10;98693.94;7361611;19;20039;-57
2022/10/21 05:58:50;;;;;;;0.00;0.00;;;;;;;15.83;75.05;98682.94;7353496;19;20052;-57
2022/10/21 06:01:16;;;;;;;0.00;0.00;;;;;;;15.87;75.25;98687.97;7363983;19;20007;-56
2022/10/21 06:03:41;;;;;;;0.00;0.00;;;;;;;15.82;74.93;98668.09;7362630;19;20033;-57
2022/10/21 06:06:07;;;;;;;0.03;0.03;;;;;;;15.85;75.08;98674.06;7361160;19;21481;-57
2022/10/21 06:08:35;;;;;;;0.08;0.08;;;;;;;15.75;75.65;98656.34;7359433;19;20010;-57
2022/10/21 06:11:00;;;;;;;;;;;;;;;15.86;73.96;98678.38;7362914;19;20085;-56
2022/10/21 06:13:26;;;;;;;0.00;0.00;;;;;;;15.77;74.78;98667.59;7362679;19;20000;-56
2022/10/21 06:15:51;;;;;;;0.00;0.00;;;;;;;15.78;74.95;98682.44;7360420;19;20006;-57
2022/10/21 06:18:17;;;;;;;0.00;0.00;;;;;;;15.75;75.08;98672.13;7360683;19;20027;-56
2022/10/21 06:20:42;;;;;;;0.00;0.00;;;;;;;15.77;75.56;98669.41;7362619;19;20014;-55
2022/10/21 06:23:07;;;;;;;0.00;0.00;;;;;;;15.75;75.45;98668.66;7361413;19;20078;-57
2022/10/21 06:25:33;;;;;;;0.00;0.00;;;;;;;15.72;75.63;98661.03;7362275;19;20030;-54
2022/10/21 06:27:58;;;;;;;0.00;0.00;;;;;;;15.77;75.31;98658.88;7364482;19;20094;-56
2022/10/21 06:30:24;;;;;;;0.00;0.00;;;;;;;15.78;75.35;98660.56;7361712;19;20039;-57
2022/10/21 06:32:50;;;;;;;0.00;0.00;;;;;;;15.78;75.61;98656.13;7360977;19;20008;-56
2022/10/21 06:35:15;;;;;;;0.00;0.00;;;;;;;15.79;75.50;98655.16;7359523;19;25507;-57
2022/10/21 06:37:40;;;;;;;0.00;0.00;;;;;;;15.80;75.13;98656.81;7346374;19;20029;-57
2022/10/21 06:40:06;;;;;;;0.08;0.08;;;;;;;15.81;75.49;98663.78;7359662;19;20026;-57
2022/10/21 06:42:32;;;;;;;0.00;0.00;;;;;;;15.77;75.24;98653.63;7362956;19;20011;-58
2022/10/21 06:44:57;;;;;;;0.00;0.00;;;;;;;15.83;75.23;98653.97;7363550;19;22200;-57
2022/10/21 06:47:23;;;;;;;0.00;0.00;;;;;;;15.81;75.40;98650.63;7364434;19;20618;-57
2022/10/21 06:49:48;;;;;;;0.00;0.00;;;;;;;15.83;75.56;98648.72;7362193;19;20018;-57
2022/10/21 06:52:14;;;;;;;0.00;0.00;;;;;;;15.85;75.75;98650.38;7363507;19;20758;-58
2022/10/21 06:54:39;;;;;;;0.00;0.00;;;;;;;15.86;75.38;98646.78;7364625;19;20015;-55
2022/10/21 06:57:05;;;;;;;0.00;0.00;;;;;;;15.81;75.67;98629.59;7363001;19;20081;-58
2022/10/21 06:59:30;;;;;;;0.08;0.08;;;;;;;15.88;75.48;98634.38;7360406;19;20011;-55
2022/10/21 07:01:55;;;;;;;0.00;0.00;;;;;;;15.89;75.64;98641.28;7362867;19;20018;-57
2022/10/21 07:04:21;;;;;;;0.00;0.00;;;;;;;15.90;75.38;98628.00;7352271;19;20003;-56
2022/10/21 07:06:47;;;;;;;0.00;0.00;;;;;;;15.90;75.64;98632.44;7341483;19;20011;-56
2022/10/21 07:09:13;;;;;;;0.08;0.08;;;;;;;15.90;75.76;98633.28;7348722;19;20015;-56
2022/10/21 07:11:38;;;;;;;0.00;0.00;;;;;;;15.92;75.43;98630.53;7347191;19;21704;-55
2022/10/21 07:14:04;;;;;;;0.00;0.00;;;;;;;15.94;75.85;98633.88;7353879;19;20033;-57
2022/10/21 07:16:32;;;;;;;0.00;0.00;;;;;;;15.96;75.57;98631.97;7353744;19;20267;-57
2022/10/21 07:18:58;;;;;;;0.00;0.00;;;;;;;15.90;75.54;98627.19;7353047;19;20070;-57
2022/10/21 07:21:25;;;;;;;0.03;0.03;;;;;;;15.97;75.91;98634.50;7356176;19;20261;-57
2022/10/21 07:23:51;;;;;;;0.00;0.00;;;;;;;15.96;75.71;98629.31;7352676;19;20373;-57
2022/10/21 07:26:19;;;;;;;0.00;0.00;;;;;;;15.99;75.84;98615.94;7350148;19;20049;-57
2022/10/21 07:28:46;;;;;;;0.00;0.00;;;;;;;15.88;75.88;98602.78;7350894;19;20007;-57
2022/10/21 07:31:16;;;;;;;0.05;0.05;;;;;;;16.02;75.63;98610.44;7354191;19;20030;-57
2022/10/21 07:33:42;;;;;;;0.00;0.00;;;;;;;16.01;75.98;98612.22;7349741;19;20026;-56
2022/10/21 07:36:09;;;;;;;0.00;0.00;;;;;;;16.02;75.40;98610.44;7353473;19;20011;-57
2022/10/21 07:38:35;;;;;;;0.00;0.00;;;;;;;15.94;75.50;98586.50;7352293;19;20397;-57
2022/10/21 07:41:01;;;;;;;0.00;0.00;;;;;;;16.06;75.38;98609.22;7351787;19;20014;-56
2022/10/21 07:43:26;;;;;;;0.00;0.00;;;;;;;16.07;75.40;98606.47;7354398;19;20059;-57
2022/10/21 07:45:52;;;;;;;0.00;0.00;;;;;;;16.09;75.47;98611.63;7352674;19;20007;-57
2022/10/21 07:48:18;;;;;;;0.00;0.00;;;;;;;16.11;75.39;98606.22;7353313;19;20665;-56
2022/10/21 07:50:43;;;;;;;0.00;0.00;;;;;;;16.13;75.19;98610.44;7357573;19;20014;-58
2022/10/21 07:53:09;;;;;;;0.00;0.00;;;;;;;16.12;75.33;98595.59;7360371;19;20015;-57
2022/10/21 07:55:34;;;;;;;0.00;0.00;;;;;;;16.13;75.68;98601.69;7360863;19;20006;-56
2022/10/21 07:57:59;;;;;;;0.03;0.03;;;;;;;16.12;75.61;98603.50;7360216;19;20937;-57
2022/10/21 08:00:25;;;;;;;0.08;0.08;;;;;;;16.12;75.56;98600.88;7362197;19;20469;-57
2022/10/21 08:02:55;;;;;;;0.10;0.10;;;;;;;16.14;75.17;98577.88;7356375;19;20050;-56
2022/10/21 08:05:21;;;;;;;0.00;0.00;;;;;;;16.14;75.41;98580.50;7356539;19;20746;-57
2022/10/21 08:07:47;;;;;;;0.10;0.10;;;;;;;16.15;75.45;98574.28;7357206;19;20003;-56
2022/10/21 08:10:12;;;;;;;0.00;0.00;;;;;;;16.16;75.85;98575.09;7359573;19;20010;-55
2022/10/21 08:12:38;;;;;;;0.00;0.00;;;;;;;16.18;75.68;98583.72;7358043;19;20110;-57
2022/10/21 08:15:04;;;;;;;0.00;0.00;;;;;;;16.18;75.73;98568.78;7355668;19;20029;-57
2022/10/21 08:17:29;;;;;;;0.10;0.10;;;;;;;16.21;75.59;98567.66;7356364;19;20011;-56
2022/10/21 08:19:55;;;;;;;0.05;0.05;;;;;;;16.23;75.99;98561.34;7358007;19;20022;-58
2022/10/21 08:22:21;;;;;;;0.10;0.10;;;;;;;16.25;75.47;98554.13;7356985;19;20030;-58
2022/10/21 08:24:46;;;;;;;0.10;0.10;;;;;;;16.17;75.30;98551.31;7358589;19;20022;-57
2022/10/21 08:27:12;;;;;;;0.00;0.00;;;;;;;16.30;75.44;98567.78;7349994;19;20014;-56
2022/10/21 08:29:37;;;;;;;0.00;0.00;;;;;;;16.33;75.26;98562.28;7355413;19;20010;-57
2022/10/21 08:32:03;;;;;;;0.00;0.00;;;;;;;16.35;75.45;98559.50;7357997;19;20019;-57
2022/10/21 08:34:29;;;;;;;0.00;0.00;;;;;;;16.37;75.18;98562.00;7357181;19;20002;-57
2022/10/21 08:36:54;;;;;;;0.00;0.00;;;;;;;16.40;75.48;98556.50;7356364;19;20013;-57
2022/10/21 08:39:19;;;;;;;0.05;0.05;;;;;;;16.39;75.60;98557.47;7360187;19;20007;-57
2022/10/21 08:41:54;;;;;;;0.00;0.00;;;;;;;16.42;75.62;98565.94;7354925;19;20002;-53
2022/10/21 08:44:52;;;;;;;0.00;0.00;;;;;;;16.42;75.12;98557.19;7357468;19;20117;-55
2022/10/21 08:47:45;;;;;;;0.10;0.10;;;;;;;16.40;75.36;98556.50;7253917;19;2004300;-57
2022/10/21 08:50:19;;;;;;;0.00;0.00;;;;;;;16.33;75.95;98543.00;7247676;19;2004598;-57
2022/10/21 08:52:58;;;;;;;0.10;0.10;;;;;;;16.30;76.08;98544.06;7355857;19;20027;-55
2022/10/21 08:55:34;;;;;;;0.10;0.10;;;;;;;16.32;75.60;98543.94;7356177;19;20466;-56
2022/10/21 08:58:01;;;;;;;0.00;0.00;;;;;;;16.19;75.52;98523.03;7354735;19;20618;-57
2022/10/21 09:00:47;;;;;;;0.00;0.00;;;;;;;16.32;75.64;98544.81;7354447;19;20030;-52
2022/10/21 09:03:45;;;;;;;0.00;0.00;;;;;;;16.33;75.06;98546.47;7354588;19;20014;-57
2022/10/21 09:06:28;;;;;;;0.00;0.00;;;;;;;16.31;75.82;98543.09;7253349;19;2004321;-54
2022/10/21 09:09:24;;;;;;;0.00;0.00;;;;;;;16.31;75.40;98537.00;7355455;19;20009;-57
2022/10/21 09:12:16;;;;;;;0.00;0.00;;;;;;;16.31;75.23;98543.09;7255857;19;2004231;-57
2022/10/21 09:15:09;;;;;;;0.10;0.10;;;;;;;16.30;75.38;98541.44;7253231;19;2004377;-56
2022/10/21 09:17:59;;;;;;;0.03;0.03;;;;;;;16.30;75.78;98530.91;7353679;19;20006;-56
2022/10/21 09:20:33;;;;;;;0.10;0.10;;;;;;;16.30;75.98;98540.59;7355812;19;20098;-57
2022/10/21 09:23:27;;;;;;;0.10;0.10;;;;;;;16.30;75.95;98551.97;7354235;19;20006;-55
2022/10/21 09:26:07;;;;;;;0.00;0.00;;;;;;;16.28;76.31;98548.63;7256373;19;2004315;-56
2022/10/21 09:28:32;;;;;;;0.00;0.00;;;;;;;16.27;76.87;98531.16;7355238;19;20010;-57
2022/10/21 09:31:02;;;;;;;0.00;0.00;;;;;;;16.30;76.69;98540.59;7355113;19;21414;-58
2022/10/21 09:33:31;;;;;;;0.00;0.00;;;;;;;16.22;76.63;98533.34;7353099;19;20010;-57
2022/10/21 09:36:33;;;;;;;0.00;0.00;;;;;;;16.37;75.60;98548.84;7353717;19;20032;-57
2022/10/21 09:39:03;;;;;;;0.00;0.00;;;;;;;16.28;76.61;98532.84;7250634;19;2004135;-57
2022/10/21 09:41:35;;;;;;;0.00;0.00;;;;;;;16.27;76.65;98525.03;7354315;19;21091;-58
2022/10/21 09:44:00;;;;;;;0.10;0.10;;;;;;;16.32;76.91;98546.56;7353294;19;20006;-57
2022/10/21 09:46:26;;;;;;;0.00;0.00;;;;;;;16.35;76.97;98555.06;7355696;19;20476;-58
2022/10/21 09:48:54;;;;;;;0.05;0.05;;;;;;;16.37;76.62;98546.19;7354712;19;20709;-56
2022/10/21 09:51:31;;;;;;;;;;;;;;;16.42;75.26;98539.59;7354987;19;20006;-57
2022/10/21 09:54:03;;;;;;;0.10;0.10;;;;;;;16.35;76.50;98527.91;7354032;19;19945;-57
2022/10/21 09:56:43;;;;;;;0.00;0.00;;;;;;;16.43;76.01;98535.19;7353323;19;21397;-56
2022/10/21 09:59:13;;;;;;;0.00;0.00;;;;;;;16.39;77.19;98531.13;7353552;19;20014;-58
2022/10/21 10:01:41;;;;;;;0.10;0.10;;;;;;;16.33;76.63;98514.88;7352964;19;20105;-56
2022/10/21 10:04:29;;;;;;;0.00;0.00;;;;;;;16.42;76.55;98538.75;7354194;19;20870;-58
2022/10/21 10:06:56;;;;;;;0.00;0.00;;;;;;;16.38;76.98;98542.63;7351097;19;20009;-57
2022/10/21 10:09:35;;;;;;;0.08;0.08;;;;;;;16.41;76.63;98537.09;7353179;19;20010;-57
2022/10/21 10:12:02;;;;;;;0.00;0.00;;;;;;;16.38;76.93;98526.81;7351821;19;20073;-57
2022/10/21 10:14:33;;;;;;;0.10;0.10;;;;;;;16.41;76.89;98537.09;7357278;19;20030;-58
2022/10/21 10:17:24;;;;;;;0.00;0.00;;;;;;;16.45;76.72;98541.16;7356659;19;20010;-57
2022/10/21 10:20:11;;;;;;;0.05;0.05;;;;;;;16.47;76.71;98536.59;7356081;19;20475;-58
2022/10/21 10:22:40;;;;;;;0.10;0.10;;;;;;;16.46;77.51;98541.03;7356701;19;20010;-58
2022/10/21 10:25:20;;;;;;;0.00;0.00;;;;;;;16.53;77.43;98530.84;7355731;19;20335;-56
2022/10/21 10:28:07;;;;;;;0.00;0.00;;;;;;;16.57;77.33;98527.84;7356085;19;20754;-58
2022/10/21 10:30:47;;;;;;;0.00;0.00;;;;;;;16.61;77.23;98523.13;7357891;19;20032;-57
2022/10/21 10:33:19;;;;;;;0.00;0.00;;;;;;;16.65;77.05;98523.72;7357787;19;20017;-58
2022/10/21 10:35:54;;;;;;;0.05;0.05;;;;;;;16.69;76.89;98515.44;7357619;19;20006;-57
2022/10/21 10:38:35;;;;;;;0.00;0.00;;;;;;;16.73;76.68;98513.44;7355890;19;20090;-57
2022/10/21 10:41:09;;;;;;;0.00;0.00;;;;;;;16.72;76.38;98532.81;7356772;19;20018;-58
2022/10/21 10:43:47;;;;;;;0.00;0.00;;;;;;;16.76;76.34;98531.59;7355938;19;20424;-58
2022/10/21 10:46:31;;;;;;;0.00;0.00;;;;;;;16.78;76.53;98520.00;7355096;19;20031;-57
2022/10/21 10:49:20;;;;;;;0.00;0.00;;;;;;;16.74;76.72;98502.75;7356656;19;20010;-57
2022/10/21 10:51:48;;;;;;;0.10;0.10;;;;;;;16.80;76.98;98518.06;7352844;19;20014;-58
2022/10/21 10:54:26;;;;;;;0.00;0.00;;;;;;;16.76;77.08;98503.44;7352126;19;20022;-57
2022/10/21 10:57:12;;;;;;;0.00;0.00;;;;;;;16.85;76.54;98515.03;7354124;19;20841;-56
2022/10/21 10:59:50;;;;;;;0.10;0.10;;;;;;;16.80;77.12;98518.06;7354412;19;20178;-57
2022/10/21 11:02:27;;;;;;;;;;;;;;;16.87;76.14;98513.09;7354347;19;20018;-57
2022/10/21 11:05:08;;;;;;;0.00;0.00;;;;;;;16.85;77.10;98507.13;7355059;19;19919;-55
2022/10/21 11:07:43;;;;;;;0.00;0.00;;;;;;;16.82;76.79;98502.94;7355526;19;20093;-57
2022/10/21 11:10:30;;;;;;;0.10;0.10;;;;;;;16.91;77.01;98525.06;7356253;19;21175;-57
2022/10/21 11:12:56;;;;;;;0.00;0.00;;;;;;;16.90;78.01;98527.84;7355657;19;20010;-58
2022/10/21 11:15:47;;;;;;;0.00;0.00;;;;;;;16.96;77.55;98522.88;7353772;19;20049;-56
2022/10/21 11:18:21;;;;;;;0.10;0.10;;;;;;;16.95;78.02;98529.13;7354075;19;20006;-57
2022/10/21 11:21:06;;;;;;;0.00;0.00;;;;;;;17.03;77.41;98533.72;7355182;19;20014;-58
2022/10/21 11:23:58;;;;;;;0.00;0.00;;;;;;;17.07;76.89;98524.59;7354375;19;20006;-57
2022/10/21 11:26:51;;;;;;;0.00;0.00;;;;;;;17.10;77.83;98529.63;7257022;19;2004525;-58
2022/10/21 11:29:35;;;;;;;0.08;0.08;;;;;;;17.10;78.04;98529.63;7255944;19;2004367;-58
2022/10/21 11:32:26;;;;;;;0.00;0.00;;;;;;;17.21;76.92;98532.19;7353116;19;20752;-58
2022/10/21 11:35:15;;;;;;;0.00;0.00;;;;;;;17.24;77.35;98531.94;7254789;19;2004456;-57
2022/10/21 11:38:08;;;;;;;0.08;0.08;;;;;;;17.26;76.91;98524.72;7355748;19;20097;-58
2022/10/21 11:40:45;;;;;;;0.00;0.00;;;;;;;17.28;77.59;98522.78;7253684;19;2004494;-60
2022/10/21 11:43:43;;;;;;;0.00;0.00;;;;;;;17.32;76.89;98524.19;7356183;19;20344;-58
2022/10/21 11:46:29;;;;;;;0.00;0.00;;;;;;;17.34;77.28;98522.28;7254880;19;2004326;-58
2022/10/21 11:49:34;;;;;;;0.00;0.00;;;;;;;17.41;77.31;98522.59;7357212;19;20434;-58
2022/10/21 11:52:07;;;;;;;0.00;0.00;;;;;;;17.47;78.02;98526.50;7252627;19;2004298;-58